createdAt,value
2023-02-23T00:01:33.603Z,1.55
2023-02-23T00:04:07.355Z,1.53
2023-02-23T00:06:41.485Z,1.51
2023-02-23T00:09:23.628Z,1.46
2023-02-23T00:11:58.940Z,1.36
2023-02-23T00:14:32.782Z,1.25
2023-02-23T00:17:11.122Z,1.16
2023-02-23T00:19:45.192Z,1.11
2023-02-23T00:22:18.716Z,1.04
2023-02-23T00:24:52.511Z,0.96
2023-02-23T00:27:26.143Z,0.89
2023-02-23T00:29:59.645Z,0.88
2023-02-23T00:32:33.390Z,0.88
2023-02-23T00:35:12.003Z,0.89
2023-02-23T00:37:46.769Z,0.89
2023-02-23T00:40:24.544Z,0.88
2023-02-23T00:42:58.799Z,0.88
2023-02-23T00:45:34.378Z,0.88
2023-02-23T00:48:11.023Z,0.86
2023-02-23T00:50:46.389Z,0.84
2023-02-23T00:53:20.274Z,0.82
2023-02-23T00:55:54.280Z,0.80
2023-02-23T00:58:28.978Z,0.78
2023-02-23T01:01:02.971Z,0.77
2023-02-23T01:03:36.417Z,0.75
2023-02-23T01:06:14.029Z,0.73
2023-02-23T01:08:50.336Z,0.71
2023-02-23T01:11:31.288Z,0.68
2023-02-23T01:14:05.554Z,0.64
2023-02-23T01:16:40.117Z,0.61
2023-02-23T01:19:14.891Z,0.58
2023-02-23T01:21:48.887Z,0.57
2023-02-23T01:24:22.516Z,0.55
2023-02-23T01:26:56.512Z,0.54
2023-02-23T01:29:30.485Z,0.54
2023-02-23T01:32:05.023Z,0.52
2023-02-23T01:34:39.043Z,0.51
2023-02-23T01:37:12.658Z,0.48
2023-02-23T01:39:46.148Z,0.46
2023-02-23T01:42:19.516Z,0.47
2023-02-23T01:45:24.249Z,0.49
2023-02-23T01:48:02.743Z,0.47
2023-02-23T01:50:44.440Z,0.45
2023-02-23T01:53:22.167Z,0.44
2023-02-23T01:55:59.381Z,0.42
2023-02-23T01:58:35.041Z,0.44
2023-02-23T02:01:09.210Z,0.45
2023-02-23T02:03:45.975Z,0.47
2023-02-23T02:06:23.837Z,0.48
2023-02-23T02:09:06.704Z,0.46
2023-02-23T02:11:45.033Z,0.46
2023-02-23T02:14:24.046Z,0.47
2023-02-23T02:17:25.817Z,0.47
2023-02-23T02:20:33.413Z,0.43
2023-02-23T02:23:36.984Z,0.39
2023-02-23T02:26:21.983Z,0.37
2023-02-23T02:29:18.736Z,0.36
2023-02-23T02:32:35.367Z,0.34
2023-02-23T02:35:34.859Z,0.34
2023-02-23T02:38:27.826Z,0.32
2023-02-23T02:41:12.406Z,0.33
2023-02-23T02:43:57.983Z,0.34
2023-02-23T02:46:37.215Z,0.38
2023-02-23T02:49:18.831Z,0.43
2023-02-23T02:51:58.666Z,0.51
2023-02-23T02:54:39.416Z,0.60
2023-02-23T02:57:15.357Z,0.70
2023-02-23T03:00:07.896Z,0.78
2023-02-23T03:03:01.222Z,0.87
2023-02-23T03:06:04.770Z,0.97
2023-02-23T03:09:04.048Z,1.03
2023-02-23T03:11:59.009Z,1.06
2023-02-23T03:14:58.684Z,1.05
2023-02-23T03:18:01.320Z,1.02
2023-02-23T03:21:02.124Z,1.02
2023-02-23T03:24:03.024Z,1.02
2023-02-23T03:27:00.213Z,1.04
2023-02-23T03:29:56.600Z,1.04
2023-02-23T03:32:54.196Z,1.04
2023-02-23T03:35:51.170Z,1.06
2023-02-23T03:38:52.156Z,1.11
2023-02-23T03:41:45.920Z,1.18
2023-02-23T03:44:44.054Z,1.22
2023-02-23T03:47:37.729Z,1.18
2023-02-23T03:50:36.356Z,1.19
2023-02-23T03:53:29.511Z,1.25
2023-02-23T03:56:23.417Z,1.29
2023-02-23T03:59:18.133Z,1.37
2023-02-23T04:02:14.456Z,1.38
2023-02-23T04:05:07.792Z,1.34
2023-02-23T04:08:01.164Z,1.36
2023-02-23T04:10:54.656Z,1.37
2023-02-23T04:13:31.743Z,1.38
2023-02-23T04:16:07.282Z,1.40
2023-02-23T04:18:42.965Z,1.42
2023-02-23T04:21:16.426Z,1.41
2023-02-23T04:23:50.423Z,1.39
2023-02-23T04:26:24.284Z,1.37
2023-02-23T04:28:58.065Z,1.40
2023-02-23T04:31:32.133Z,1.41
2023-02-23T04:34:06.341Z,1.38
2023-02-23T04:36:41.028Z,1.37
2023-02-23T04:39:14.702Z,1.40
2023-02-23T04:41:49.164Z,1.43
2023-02-23T04:44:22.975Z,1.44
2023-02-23T04:46:57.872Z,1.43
2023-02-23T04:49:48.939Z,1.39
2023-02-23T04:52:22.583Z,1.39
2023-02-23T04:54:56.412Z,1.37
2023-02-23T04:57:30.734Z,1.39
2023-02-23T05:00:05.525Z,1.42
2023-02-23T05:02:39.009Z,1.44
2023-02-23T05:05:13.391Z,1.46
2023-02-23T05:07:46.772Z,1.45
2023-02-23T05:10:20.969Z,1.39
2023-02-23T05:12:55.293Z,1.37
2023-02-23T05:15:29.141Z,1.36
2023-02-23T05:18:02.647Z,1.36
2023-02-23T05:20:36.127Z,1.36
2023-02-23T05:23:10.178Z,1.37
2023-02-23T05:25:43.866Z,1.38
2023-02-23T05:28:17.780Z,1.35
2023-02-23T05:30:51.400Z,1.32
2023-02-23T05:33:25.297Z,1.31
2023-02-23T05:35:59.184Z,1.28
2023-02-23T05:38:33.276Z,1.24
2023-02-23T05:41:10.919Z,1.26
2023-02-23T05:43:44.541Z,1.27
2023-02-23T05:46:21.913Z,1.28
2023-02-23T05:48:59.491Z,1.31
2023-02-23T05:51:34.457Z,1.34
2023-02-23T05:54:08.528Z,1.34
2023-02-23T05:56:42.441Z,1.31
2023-02-23T05:59:17.642Z,1.30
2023-02-23T06:01:51.708Z,1.33
2023-02-23T06:04:25.268Z,1.36
2023-02-23T06:06:59.370Z,1.36
2023-02-23T06:09:33.328Z,1.36
2023-02-23T06:12:07.977Z,1.36
2023-02-23T06:14:41.844Z,1.36
2023-02-23T06:17:15.509Z,1.42
2023-02-23T06:19:49.324Z,1.49
2023-02-23T06:22:23.374Z,1.55
2023-02-23T06:24:57.399Z,1.59
2023-02-23T06:27:30.845Z,1.61
2023-02-23T06:30:04.478Z,1.66
2023-02-23T06:32:38.525Z,1.74
2023-02-23T06:35:15.625Z,1.83
2023-02-23T06:37:49.294Z,1.93
2023-02-23T06:40:23.739Z,2.02
2023-02-23T06:42:57.770Z,2.08
2023-02-23T06:45:32.149Z,2.14
2023-02-23T06:48:06.026Z,2.22
2023-02-23T06:50:39.622Z,2.37
2023-02-23T06:53:13.139Z,2.51
2023-02-23T06:55:46.694Z,2.61
2023-02-23T06:58:20.646Z,2.72
2023-02-23T07:00:56.704Z,2.85
2023-02-23T07:03:30.470Z,2.88
2023-02-23T07:06:06.060Z,2.90
2023-02-23T07:08:39.720Z,3.00
2023-02-23T07:11:16.065Z,3.15
2023-02-23T07:13:49.765Z,3.21
2023-02-23T07:16:24.601Z,3.24
2023-02-23T07:18:58.550Z,3.25
2023-02-23T07:21:33.642Z,3.32
2023-02-23T07:24:07.817Z,3.42
2023-02-23T07:26:44.112Z,3.53
2023-02-23T07:29:18.601Z,3.56
2023-02-23T07:31:52.444Z,3.52
2023-02-23T07:34:26.213Z,3.45
2023-02-23T07:36:59.834Z,3.57
2023-02-23T07:39:33.984Z,3.74
2023-02-23T07:42:08.170Z,3.90
2023-02-23T07:44:41.920Z,4.04
2023-02-23T07:47:15.509Z,4.07
2023-02-23T07:49:49.351Z,4.16
2023-02-23T07:52:23.531Z,4.25
2023-02-23T07:54:58.088Z,4.37
2023-02-23T07:57:31.698Z,4.51
2023-02-23T08:00:06.683Z,4.64
2023-02-23T08:02:46.813Z,5.04
2023-02-23T08:05:20.656Z,5.47
2023-02-23T08:07:54.448Z,5.86
2023-02-23T08:10:28.278Z,6.06
2023-02-23T08:13:03.122Z,6.40
2023-02-23T08:15:37.221Z,6.99
2023-02-23T08:18:11.754Z,7.19
2023-02-23T08:20:45.820Z,7.25
2023-02-23T08:23:19.765Z,7.18
2023-02-23T08:25:54.750Z,6.98
2023-02-23T08:28:28.404Z,6.77
2023-02-23T08:31:02.154Z,6.50
2023-02-23T08:33:36.690Z,6.39
2023-02-23T08:36:11.414Z,6.35
2023-02-23T08:38:45.219Z,6.38
2023-02-23T08:41:19.306Z,6.66
2023-02-23T08:43:53.153Z,6.72
2023-02-23T08:46:27.072Z,6.66
2023-02-23T08:49:01.308Z,6.61
2023-02-23T08:51:36.008Z,6.50
2023-02-23T08:54:15.204Z,6.45
2023-02-23T08:56:49.304Z,6.48
2023-02-23T08:59:23.243Z,6.49
2023-02-23T09:02:16.260Z,6.51
2023-02-23T09:04:50.595Z,6.51
2023-02-23T09:07:25.334Z,6.44
2023-02-23T09:10:00.002Z,6.31
2023-02-23T09:12:33.840Z,6.42
2023-02-23T09:15:08.743Z,6.96
2023-02-23T09:17:45.194Z,7.10
2023-02-23T09:20:20.176Z,6.99
2023-02-23T09:22:53.878Z,7.04
2023-02-23T09:25:29.592Z,7.15
2023-02-23T09:28:03.323Z,7.32
2023-02-23T09:30:37.647Z,7.33
2023-02-23T09:33:11.445Z,7.25
2023-02-23T09:35:45.234Z,7.21
2023-02-23T09:38:19.324Z,7.19
2023-02-23T09:40:55.397Z,7.17
2023-02-23T09:43:37.978Z,7.16
2023-02-23T09:46:24.112Z,7.10
2023-02-23T09:49:02.869Z,7.03
2023-02-23T09:51:43.453Z,6.96
2023-02-23T09:54:19.653Z,6.85
2023-02-23T09:56:56.640Z,6.75
2023-02-23T09:59:31.325Z,6.73
2023-02-23T10:02:15.273Z,6.80
2023-02-23T10:04:51.391Z,6.92
2023-02-23T10:07:36.765Z,7.03
2023-02-23T10:10:23.691Z,7.09
2023-02-23T10:13:10.117Z,7.06
2023-02-23T10:15:51.982Z,7.06
2023-02-23T10:18:46.175Z,7.08
2023-02-23T10:21:30.054Z,7.03
2023-02-23T10:24:09.566Z,7.01
2023-02-23T10:26:49.467Z,6.98
2023-02-23T10:29:28.856Z,7.06
2023-02-23T10:32:07.539Z,7.14
2023-02-23T10:34:42.929Z,7.22
2023-02-23T10:37:18.933Z,7.29
2023-02-23T10:39:53.096Z,7.40
2023-02-23T10:42:30.338Z,7.51
2023-02-23T10:45:04.463Z,7.61
2023-02-23T10:47:39.718Z,7.64
2023-02-23T10:50:15.296Z,7.79
2023-02-23T10:52:52.929Z,8.01
2023-02-23T10:55:30.363Z,8.15
2023-02-23T10:58:17.262Z,8.36
2023-02-23T11:00:59.171Z,8.69
2023-02-23T11:03:37.935Z,8.86
2023-02-23T11:06:29.002Z,8.87
2023-02-23T11:09:18.364Z,8.96
2023-02-23T11:12:03.082Z,9.14
2023-02-23T11:14:37.303Z,9.06
2023-02-23T11:17:28.783Z,8.91
2023-02-23T11:20:08.612Z,9.06
2023-02-23T11:22:44.861Z,9.20
2023-02-23T11:25:36.300Z,9.22
2023-02-23T11:28:18.883Z,9.17
2023-02-23T11:30:53.252Z,9.17
2023-02-23T11:33:31.846Z,9.40
2023-02-23T11:36:27.810Z,9.53
2023-02-23T11:39:22.419Z,9.57
2023-02-23T11:42:18.322Z,9.67
2023-02-23T11:45:07.744Z,9.63
2023-02-23T11:47:49.653Z,9.68
2023-02-23T11:50:33.089Z,9.95
2023-02-23T11:53:14.089Z,10.05
2023-02-23T11:55:55.242Z,10.09
2023-02-23T11:58:36.188Z,10.04
2023-02-23T12:01:13.835Z,9.92
2023-02-23T12:03:51.737Z,9.74
2023-02-23T12:06:34.338Z,9.56
2023-02-23T12:09:21.390Z,9.55
2023-02-23T12:12:00.863Z,9.52
2023-02-23T12:14:41.779Z,9.56
2023-02-23T12:17:23.530Z,9.59
2023-02-23T12:20:02.109Z,9.43
2023-02-23T12:22:36.629Z,9.33
2023-02-23T12:25:23.527Z,9.40
2023-02-23T12:28:18.100Z,9.54
2023-02-23T12:30:57.649Z,9.58
2023-02-23T12:33:40.182Z,9.66
2023-02-23T12:36:26.881Z,9.77
2023-02-23T12:39:06.295Z,9.79
2023-02-23T12:41:45.486Z,9.88
2023-02-23T12:44:32.300Z,9.93
2023-02-23T12:47:16.687Z,9.97
2023-02-23T12:49:58.399Z,10.06
2023-02-23T12:52:37.525Z,10.05
2023-02-23T12:55:14.248Z,10.00
2023-02-23T12:57:57.223Z,10.00
2023-02-23T13:00:48.945Z,9.96
2023-02-23T13:03:46.537Z,9.78
2023-02-23T13:06:30.900Z,9.52
2023-02-23T13:09:17.947Z,9.36
2023-02-23T13:12:08.084Z,9.36
2023-02-23T13:14:49.210Z,9.26
2023-02-23T13:17:36.293Z,9.27
2023-02-23T13:20:18.065Z,9.34
2023-02-23T13:23:00.635Z,9.23
2023-02-23T13:25:44.291Z,9.06
2023-02-23T13:28:23.633Z,8.86
2023-02-23T13:30:58.329Z,8.75
2023-02-23T13:33:43.515Z,8.77
2023-02-23T13:36:18.342Z,8.76
2023-02-23T13:39:18.621Z,8.74
2023-02-23T13:42:07.190Z,8.75
2023-02-23T13:44:46.234Z,8.73
2023-02-23T13:47:35.114Z,8.84
2023-02-23T13:50:22.096Z,8.81
2023-02-23T13:52:58.974Z,8.71
2023-02-23T13:55:53.853Z,8.64
2023-02-23T13:58:31.622Z,8.63
2023-02-23T14:01:16.351Z,8.56
2023-02-23T14:03:59.325Z,8.51
2023-02-23T14:06:35.625Z,8.49
2023-02-23T14:09:21.888Z,8.49
2023-02-23T14:12:07.585Z,8.44
2023-02-23T14:14:46.460Z,8.36
2023-02-23T14:17:51.029Z,8.30
2023-02-23T14:20:49.371Z,8.24
2023-02-23T14:23:37.075Z,8.16
2023-02-23T14:26:19.883Z,8.09
2023-02-23T14:29:27.571Z,8.13
2023-02-23T14:32:05.099Z,8.15
2023-02-23T14:34:50.542Z,8.13
2023-02-23T14:37:32.315Z,8.13
2023-02-23T14:40:13.827Z,8.10
2023-02-23T14:42:52.020Z,8.03
2023-02-23T14:45:29.173Z,7.97
2023-02-23T14:48:08.289Z,7.96
2023-02-23T14:50:45.621Z,7.97
2023-02-23T14:53:24.980Z,7.89
2023-02-23T14:56:00.387Z,7.84
2023-02-23T14:58:35.603Z,7.78
2023-02-23T15:01:09.382Z,7.67
2023-02-23T15:03:43.261Z,7.57
2023-02-23T15:06:17.312Z,7.51
2023-02-23T15:08:51.117Z,7.50
2023-02-23T15:11:26.118Z,7.48
2023-02-23T15:14:00.669Z,7.44
2023-02-23T15:16:36.656Z,7.43
2023-02-23T15:19:36.466Z,7.43
2023-02-23T15:22:10.303Z,7.36
2023-02-23T15:24:50.268Z,7.30
2023-02-23T15:27:30.445Z,7.27
2023-02-23T15:30:20.389Z,7.23
2023-02-23T15:33:04.500Z,7.19
2023-02-23T15:35:48.238Z,7.12
2023-02-23T15:38:45.759Z,7.03
2023-02-23T15:41:31.426Z,6.98
2023-02-23T15:44:14.069Z,6.91
2023-02-23T15:46:52.486Z,6.85
2023-02-23T15:49:31.035Z,6.79
2023-02-23T15:52:04.818Z,6.74
2023-02-23T15:54:47.445Z,6.66
2023-02-23T15:57:29.831Z,6.59
2023-02-23T16:00:11.030Z,6.55
2023-02-23T16:02:47.605Z,6.52
2023-02-23T16:05:32.531Z,6.49
2023-02-23T16:08:23.232Z,6.45
2023-02-23T16:11:04.946Z,6.40
2023-02-23T16:13:40.034Z,6.35
2023-02-23T16:16:19.663Z,6.31
2023-02-23T16:19:02.580Z,6.26
2023-02-23T16:21:42.504Z,6.22
2023-02-23T16:24:22.936Z,6.17
2023-02-23T16:27:06.747Z,6.12
2023-02-23T16:29:43.827Z,6.08
2023-02-23T16:32:25.869Z,6.04
2023-02-23T16:35:04.561Z,6.01
2023-02-23T16:37:57.399Z,5.97
2023-02-23T16:40:33.512Z,5.94
2023-02-23T16:43:07.485Z,5.93
2023-02-23T16:45:44.022Z,5.93
2023-02-23T16:48:22.083Z,5.92
2023-02-23T16:50:58.040Z,5.90
2023-02-23T16:53:31.640Z,5.88
2023-02-23T16:56:14.258Z,5.86
2023-02-23T16:58:53.017Z,5.84
2023-02-23T17:01:25.167Z,5.82
2023-02-23T17:04:00.776Z,5.77
2023-02-23T17:06:36.242Z,5.69
2023-02-23T17:09:10.282Z,5.64
2023-02-23T17:11:47.512Z,5.60
2023-02-23T17:14:28.282Z,5.56
2023-02-23T17:17:03.518Z,5.55
2023-02-23T17:19:39.990Z,5.56
2023-02-23T17:22:16.292Z,5.58
2023-02-23T17:24:50.537Z,5.59
2023-02-23T17:27:25.522Z,5.59
2023-02-23T17:30:02.527Z,5.58
2023-02-23T17:32:39.156Z,5.57
2023-02-23T17:35:15.086Z,5.56
2023-02-23T17:37:51.437Z,5.54
2023-02-23T17:40:35.670Z,5.52
2023-02-23T17:43:14.192Z,5.50
2023-02-23T17:45:50.160Z,5.50
2023-02-23T17:48:28.640Z,5.50
2023-02-23T17:51:06.912Z,5.51
2023-02-23T17:53:43.121Z,5.52
2023-02-23T17:56:25.906Z,5.51
2023-02-23T17:59:02.193Z,5.52
2023-02-23T18:01:50.319Z,5.52
2023-02-23T18:04:25.754Z,5.52
2023-02-23T18:07:06.527Z,5.51
2023-02-23T18:09:44.382Z,5.49
2023-02-23T18:12:24.948Z,5.48
2023-02-23T18:15:04.344Z,5.46
2023-02-23T18:17:42.201Z,5.44
2023-02-23T18:20:22.742Z,5.44
2023-02-23T18:23:01.238Z,5.43
2023-02-23T18:25:41.670Z,5.40
2023-02-23T18:28:21.859Z,5.36
2023-02-23T18:31:00.343Z,5.35
2023-02-23T18:33:39.934Z,5.34
2023-02-23T18:36:27.384Z,5.33
2023-02-23T18:39:05.254Z,5.31
2023-02-23T18:41:42.858Z,5.28
2023-02-23T18:44:23.474Z,5.23
2023-02-23T18:46:59.098Z,5.21
2023-02-23T18:49:35.233Z,5.19
2023-02-23T18:52:10.792Z,5.17
2023-02-23T18:54:49.412Z,5.14
2023-02-23T18:57:28.006Z,5.10
2023-02-23T19:00:08.229Z,5.09
2023-02-23T19:02:47.465Z,5.08
2023-02-23T19:05:31.826Z,5.07
2023-02-23T19:08:15.030Z,5.06
2023-02-23T19:11:04.035Z,5.04
2023-02-23T19:13:43.066Z,5.01
2023-02-23T19:16:36.588Z,5.00
2023-02-23T19:19:15.102Z,5.00
2023-02-23T19:22:00.119Z,5.00
2023-02-23T19:24:41.982Z,4.99
2023-02-23T19:27:24.268Z,4.98
2023-02-23T19:30:07.997Z,4.99
2023-02-23T19:32:47.875Z,4.99
2023-02-23T19:35:26.082Z,4.99
2023-02-23T19:38:04.840Z,5.00
2023-02-23T19:40:44.765Z,5.00
2023-02-23T19:43:20.290Z,4.99
2023-02-23T19:46:00.259Z,4.98
2023-02-23T19:48:39.623Z,4.96
2023-02-23T19:51:21.315Z,4.94
2023-02-23T19:54:00.994Z,4.91
2023-02-23T19:56:39.083Z,4.89
2023-02-23T19:59:16.376Z,4.87
2023-02-23T20:01:55.242Z,4.85
2023-02-23T20:04:32.561Z,4.83
2023-02-23T20:07:12.619Z,4.80
2023-02-23T20:09:51.944Z,4.77
2023-02-23T20:12:33.676Z,4.74
2023-02-23T20:15:11.505Z,4.72
2023-02-23T20:17:49.700Z,4.72
2023-02-23T20:20:26.822Z,4.70
2023-02-23T20:23:11.628Z,4.68
2023-02-23T20:25:50.583Z,4.66
2023-02-23T20:28:28.710Z,4.64
2023-02-23T20:31:14.213Z,4.61
2023-02-23T20:33:51.747Z,4.58
2023-02-23T20:36:29.236Z,4.55
2023-02-23T20:39:11.149Z,4.52
2023-02-23T20:41:55.010Z,4.50
2023-02-23T20:44:44.228Z,4.49
2023-02-23T20:47:22.791Z,4.47
2023-02-23T20:50:02.305Z,4.44
2023-02-23T20:52:47.388Z,4.41
2023-02-23T20:55:27.573Z,4.38
2023-02-23T20:58:05.666Z,4.37
2023-02-23T21:00:50.816Z,4.37
2023-02-23T21:03:38.804Z,4.39
2023-02-23T21:06:16.756Z,4.40
2023-02-23T21:09:13.285Z,4.40
2023-02-23T21:11:49.677Z,4.38
2023-02-23T21:14:25.486Z,4.36
2023-02-23T21:17:02.794Z,4.34
2023-02-23T21:19:37.845Z,4.34
2023-02-23T21:22:17.457Z,4.36
2023-02-23T21:24:52.673Z,4.36
2023-02-23T21:27:30.464Z,4.35
2023-02-23T21:30:06.355Z,4.35
2023-02-23T21:32:44.508Z,4.33
2023-02-23T21:35:20.041Z,4.30
2023-02-23T21:37:59.797Z,4.27
2023-02-23T21:40:34.950Z,4.23
2023-02-23T21:43:10.332Z,4.20
2023-02-23T21:45:47.268Z,4.17
2023-02-23T21:48:22.236Z,4.15
2023-02-23T21:51:04.196Z,4.12
2023-02-23T21:53:40.118Z,4.11
2023-02-23T21:56:15.571Z,4.08
2023-02-23T21:58:51.364Z,4.04
2023-02-23T22:01:28.143Z,4.00
2023-02-23T22:04:02.237Z,3.99
2023-02-23T22:06:39.466Z,4.00
2023-02-23T22:09:16.182Z,4.02
2023-02-23T22:11:50.848Z,4.02
2023-02-23T22:14:24.346Z,4.04
2023-02-23T22:16:58.208Z,4.03
2023-02-23T22:19:31.657Z,4.02
2023-02-23T22:22:05.147Z,4.03
2023-02-23T22:24:39.340Z,4.05
2023-02-23T22:27:14.302Z,4.07
2023-02-23T22:29:47.998Z,4.08
2023-02-23T22:32:21.845Z,4.09
2023-02-23T22:34:55.820Z,4.11
2023-02-23T22:37:30.244Z,4.11
2023-02-23T22:40:12.036Z,4.10
2023-02-23T22:42:49.878Z,4.10
2023-02-23T22:45:23.485Z,4.12
2023-02-23T22:48:02.029Z,4.15
2023-02-23T22:50:33.718Z,4.15
2023-02-23T22:53:08.334Z,4.15
2023-02-23T22:55:47.889Z,4.14
2023-02-23T22:58:23.643Z,4.14
2023-02-23T23:01:07.116Z,4.13
2023-02-23T23:03:42.699Z,4.15
2023-02-23T23:06:18.120Z,4.19
2023-02-23T23:08:54.435Z,4.24
2023-02-23T23:11:30.312Z,4.28
2023-02-23T23:14:07.440Z,4.31
2023-02-23T23:16:48.602Z,4.33
2023-02-23T23:19:25.007Z,4.35
2023-02-23T23:22:00.680Z,4.37
2023-02-23T23:24:34.545Z,4.40
2023-02-23T23:27:08.675Z,4.44
2023-02-23T23:29:46.123Z,4.46
2023-02-23T23:32:28.219Z,4.52
2023-02-23T23:35:02.109Z,4.57
2023-02-23T23:37:36.324Z,4.63
2023-02-23T23:40:16.006Z,4.69
2023-02-23T23:42:49.904Z,4.77
2023-02-23T23:45:25.771Z,4.83
2023-02-23T23:47:59.485Z,4.91
2023-02-23T23:50:33.198Z,4.98
2023-02-23T23:53:08.004Z,5.00
2023-02-23T23:55:41.530Z,5.04
2023-02-23T23:58:18.825Z,5.11
